sensor_id;sensor_type;location;lat;lon;timestamp;P1;durP1;ratioP1;P2;durP2;ratioP2
42666;SDS011;28280;49.646;14.130;2022-07-24T00:04:06;7.47;;;5.68;;
42666;SDS011;28280;49.646;14.130;2022-07-24T00:09:39;6.20;;;5.60;;
42666;SDS011;28280;49.646;14.130;2022-07-24T00:15:10;7.65;;;6.20;;
42666;SDS011;28280;49.646;14.130;2022-07-24T00:20:42;9.15;;;5.97;;
42666;SDS011;28280;49.646;14.130;2022-07-24T00:26:13;10.38;;;5.85;;
42666;SDS011;28280;49.646;14.130;2022-07-24T00:31:45;9.30;;;5.93;;
42666;SDS011;28280;49.646;14.130;2022-07-24T00:37:19;9.02;;;6.43;;
42666;SDS011;28280;49.646;14.130;2022-07-24T00:42:51;6.68;;;5.97;;
42666;SDS011;28280;49.646;14.130;2022-07-24T00:48:22;6.87;;;5.73;;
42666;SDS011;28280;49.646;14.130;2022-07-24T00:53:54;6.87;;;6.03;;
42666;SDS011;28280;49.646;14.130;2022-07-24T00:59:25;6.68;;;5.80;;
42666;SDS011;28280;49.646;14.130;2022-07-24T01:04:56;8.80;;;6.15;;
42666;SDS011;28280;49.646;14.130;2022-07-24T01:10:28;7.57;;;6.43;;
42666;SDS011;28280;49.646;14.130;2022-07-24T01:16:00;7.95;;;6.32;;
42666;SDS011;28280;49.646;14.130;2022-07-24T01:21:31;8.57;;;6.07;;
42666;SDS011;28280;49.646;14.130;2022-07-24T01:27:02;8.32;;;5.90;;
42666;SDS011;28280;49.646;14.130;2022-07-24T01:32:33;8.65;;;5.93;;
42666;SDS011;28280;49.646;14.130;2022-07-24T01:38:05;7.10;;;6.00;;
42666;SDS011;28280;49.646;14.130;2022-07-24T01:43:36;7.97;;;6.20;;
42666;SDS011;28280;49.646;14.130;2022-07-24T01:49:08;6.75;;;6.05;;
42666;SDS011;28280;49.646;14.130;2022-07-24T01:54:40;9.23;;;5.18;;
42666;SDS011;28280;49.646;14.130;2022-07-24T02:00:11;6.35;;;5.75;;
42666;SDS011;28280;49.646;14.130;2022-07-24T02:05:44;6.60;;;6.00;;
42666;SDS011;28280;49.646;14.130;2022-07-24T02:11:15;7.03;;;6.28;;
42666;SDS011;28280;49.646;14.130;2022-07-24T02:16:49;6.70;;;6.00;;
42666;SDS011;28280;49.646;14.130;2022-07-24T02:22:23;8.30;;;5.68;;
42666;SDS011;28280;49.646;14.130;2022-07-24T02:27:54;7.53;;;5.78;;
42666;SDS011;28280;49.646;14.130;2022-07-24T02:39:21;6.93;;;6.22;;
42666;SDS011;28280;49.646;14.130;2022-07-24T02:44:54;7.13;;;5.70;;
42666;SDS011;28280;49.646;14.130;2022-07-24T02:50:25;9.30;;;5.82;;
42666;SDS011;28280;49.646;14.130;2022-07-24T02:56:25;6.43;;;5.47;;
42666;SDS011;28280;49.646;14.130;2022-07-24T03:01:57;7.15;;;5.88;;
42666;SDS011;28280;49.646;14.130;2022-07-24T03:07:28;8.40;;;5.85;;
42666;SDS011;28280;49.646;14.130;2022-07-24T03:13:00;8.73;;;6.47;;
42666;SDS011;28280;49.646;14.130;2022-07-24T03:18:31;6.70;;;5.65;;
42666;SDS011;28280;49.646;14.130;2022-07-24T03:24:02;7.70;;;6.00;;
42666;SDS011;28280;49.646;14.130;2022-07-24T03:29:33;7.40;;;6.60;;
42666;SDS011;28280;49.646;14.130;2022-07-24T03:35:05;6.75;;;5.85;;
42666;SDS011;28280;49.646;14.130;2022-07-24T03:40:37;8.60;;;5.90;;
42666;SDS011;28280;49.646;14.130;2022-07-24T03:46:08;7.07;;;5.72;;
42666;SDS011;28280;49.646;14.130;2022-07-24T03:51:40;7.55;;;6.13;;
42666;SDS011;28280;49.646;14.130;2022-07-24T03:57:11;7.77;;;6.47;;
42666;SDS011;28280;49.646;14.130;2022-07-24T04:02:42;9.05;;;8.15;;
42666;SDS011;28280;49.646;14.130;2022-07-24T04:08:13;13.00;;;8.88;;
42666;SDS011;28280;49.646;14.130;2022-07-24T04:13:45;11.07;;;8.30;;
42666;SDS011;28280;49.646;14.130;2022-07-24T04:19:16;9.52;;;8.52;;
42666;SDS011;28280;49.646;14.130;2022-07-24T04:24:47;9.50;;;8.20;;
42666;SDS011;28280;49.646;14.130;2022-07-24T04:30:18;10.18;;;7.78;;
42666;SDS011;28280;49.646;14.130;2022-07-24T04:35:49;12.82;;;9.07;;
42666;SDS011;28280;49.646;14.130;2022-07-24T04:41:21;10.50;;;8.80;;
42666;SDS011;28280;49.646;14.130;2022-07-24T04:46:52;10.48;;;9.38;;
42666;SDS011;28280;49.646;14.130;2022-07-24T04:52:23;11.88;;;9.52;;
42666;SDS011;28280;49.646;14.130;2022-07-24T04:57:54;11.32;;;8.75;;
42666;SDS011;28280;49.646;14.130;2022-07-24T05:03:25;9.93;;;8.07;;
42666;SDS011;28280;49.646;14.130;2022-07-24T05:08:57;9.30;;;8.23;;
42666;SDS011;28280;49.646;14.130;2022-07-24T05:14:29;9.67;;;8.67;;
42666;SDS011;28280;49.646;14.130;2022-07-24T05:20:00;11.25;;;8.43;;
42666;SDS011;28280;49.646;14.130;2022-07-24T05:25:31;9.52;;;8.07;;
42666;SDS011;28280;49.646;14.130;2022-07-24T05:31:06;10.27;;;9.18;;
42666;SDS011;28280;49.646;14.130;2022-07-24T05:36:39;9.43;;;8.25;;
42666;SDS011;28280;49.646;14.130;2022-07-24T05:42:10;10.35;;;8.80;;
42666;SDS011;28280;49.646;14.130;2022-07-24T05:47:42;9.93;;;8.98;;
42666;SDS011;28280;49.646;14.130;2022-07-24T05:53:13;9.65;;;8.60;;
42666;SDS011;28280;49.646;14.130;2022-07-24T05:58:44;10.85;;;9.07;;
42666;SDS011;28280;49.646;14.130;2022-07-24T06:04:21;12.85;;;9.40;;
42666;SDS011;28280;49.646;14.130;2022-07-24T06:09:52;13.25;;;9.35;;
42666;SDS011;28280;49.646;14.130;2022-07-24T06:15:25;15.80;;;10.77;;
42666;SDS011;28280;49.646;14.130;2022-07-24T06:20:56;10.80;;;9.70;;
42666;SDS011;28280;49.646;14.130;2022-07-24T06:26:27;12.75;;;10.10;;
42666;SDS011;28280;49.646;14.130;2022-07-24T06:32:00;11.07;;;9.50;;
42666;SDS011;28280;49.646;14.130;2022-07-24T06:37:31;8.70;;;7.80;;
42666;SDS011;28280;49.646;14.130;2022-07-24T06:43:03;9.25;;;8.15;;
42666;SDS011;28280;49.646;14.130;2022-07-24T06:48:34;10.40;;;8.15;;
42666;SDS011;28280;49.646;14.130;2022-07-24T06:54:05;8.98;;;7.57;;
42666;SDS011;28280;49.646;14.130;2022-07-24T06:59:36;9.88;;;7.20;;
42666;SDS011;28280;49.646;14.130;2022-07-24T07:05:08;10.38;;;8.05;;
42666;SDS011;28280;49.646;14.130;2022-07-24T07:10:39;8.03;;;7.23;;
42666;SDS011;28280;49.646;14.130;2022-07-24T07:16:11;8.45;;;7.53;;
42666;SDS011;28280;49.646;14.130;2022-07-24T07:21:42;10.70;;;7.73;;
42666;SDS011;28280;49.646;14.130;2022-07-24T07:27:13;9.65;;;7.50;;
42666;SDS011;28280;49.646;14.130;2022-07-24T07:32:44;10.05;;;7.35;;
42666;SDS011;28280;49.646;14.130;2022-07-24T07:38:16;9.45;;;7.28;;
42666;SDS011;28280;49.646;14.130;2022-07-24T07:43:53;8.15;;;6.97;;
42666;SDS011;28280;49.646;14.130;2022-07-24T07:49:25;8.90;;;7.75;;
42666;SDS011;28280;49.646;14.130;2022-07-24T07:54:56;11.25;;;9.00;;
42666;SDS011;28280;49.646;14.130;2022-07-24T08:00:26;8.65;;;7.75;;
42666;SDS011;28280;49.646;14.130;2022-07-24T08:05:59;9.95;;;7.38;;
42666;SDS011;28280;49.646;14.130;2022-07-24T08:11:30;8.90;;;7.68;;
42666;SDS011;28280;49.646;14.130;2022-07-24T08:17:02;7.90;;;7.10;;
42666;SDS011;28280;49.646;14.130;2022-07-24T08:22:34;8.48;;;7.53;;
42666;SDS011;28280;49.646;14.130;2022-07-24T08:28:05;10.20;;;7.68;;
42666;SDS011;28280;49.646;14.130;2022-07-24T08:33:36;8.43;;;7.57;;
42666;SDS011;28280;49.646;14.130;2022-07-24T08:39:07;8.75;;;7.28;;
42666;SDS011;28280;49.646;14.130;2022-07-24T08:44:40;9.13;;;6.97;;
42666;SDS011;28280;49.646;14.130;2022-07-24T08:50:12;9.10;;;6.93;;
42666;SDS011;28280;49.646;14.130;2022-07-24T08:55:43;8.85;;;7.43;;
42666;SDS011;28280;49.646;14.130;2022-07-24T09:01:15;10.60;;;7.07;;
42666;SDS011;28280;49.646;14.130;2022-07-24T09:06:57;12.03;;;7.00;;
42666;SDS011;28280;49.646;14.130;2022-07-24T09:12:32;9.07;;;6.90;;
42666;SDS011;28280;49.646;14.130;2022-07-24T09:18:05;9.80;;;7.18;;
42666;SDS011;28280;49.646;14.130;2022-07-24T09:23:38;12.52;;;6.95;;
42666;SDS011;28280;49.646;14.130;2022-07-24T09:34:42;10.82;;;7.60;;
42666;SDS011;28280;49.646;14.130;2022-07-24T09:40:14;8.63;;;7.47;;
42666;SDS011;28280;49.646;14.130;2022-07-24T09:51:25;9.35;;;7.82;;
42666;SDS011;28280;49.646;14.130;2022-07-24T09:57:40;11.52;;;6.88;;
42666;SDS011;28280;49.646;14.130;2022-07-24T10:02:56;9.48;;;7.15;;
42666;SDS011;28280;49.646;14.130;2022-07-24T10:08:28;10.23;;;7.47;;
42666;SDS011;28280;49.646;14.130;2022-07-24T10:14:00;8.75;;;7.35;;
42666;SDS011;28280;49.646;14.130;2022-07-24T10:19:38;10.27;;;7.30;;
42666;SDS011;28280;49.646;14.130;2022-07-24T10:25:17;7.90;;;7.10;;
42666;SDS011;28280;49.646;14.130;2022-07-24T10:30:50;8.82;;;7.50;;
42666;SDS011;28280;49.646;14.130;2022-07-24T10:36:25;8.53;;;6.50;;
42666;SDS011;28280;49.646;14.130;2022-07-24T10:42:03;7.75;;;6.95;;
42666;SDS011;28280;49.646;14.130;2022-07-24T10:47:36;7.63;;;6.80;;
42666;SDS011;28280;49.646;14.130;2022-07-24T10:53:20;7.72;;;6.55;;
42666;SDS011;28280;49.646;14.130;2022-07-24T10:58:53;7.85;;;6.80;;
42666;SDS011;28280;49.646;14.130;2022-07-24T11:04:33;8.18;;;6.90;;
42666;SDS011;28280;49.646;14.130;2022-07-24T11:10:05;7.38;;;6.30;;
42666;SDS011;28280;49.646;14.130;2022-07-24T11:21:47;7.45;;;6.15;;
42666;SDS011;28280;49.646;14.130;2022-07-24T11:27:19;7.40;;;6.70;;
42666;SDS011;28280;49.646;14.130;2022-07-24T11:32:51;7.40;;;6.70;;
42666;SDS011;28280;49.646;14.130;2022-07-24T11:38:29;6.80;;;6.10;;
42666;SDS011;28280;49.646;14.130;2022-07-24T11:44:00;7.25;;;6.47;;
42666;SDS011;28280;49.646;14.130;2022-07-24T11:55:15;6.65;;;5.95;;
42666;SDS011;28280;49.646;14.130;2022-07-24T12:00:51;6.50;;;5.90;;
42666;SDS011;28280;49.646;14.130;2022-07-24T12:06:22;6.90;;;6.10;;
42666;SDS011;28280;49.646;14.130;2022-07-24T12:12:00;7.95;;;6.30;;
42666;SDS011;28280;49.646;14.130;2022-07-24T12:17:33;6.80;;;5.80;;
42666;SDS011;28280;49.646;14.130;2022-07-24T12:23:06;6.22;;;5.63;;
42666;SDS011;28280;49.646;14.130;2022-07-24T12:28:39;6.88;;;6.18;;
42666;SDS011;28280;49.646;14.130;2022-07-24T12:34:10;8.10;;;5.57;;
42666;SDS011;28280;49.646;14.130;2022-07-24T12:39:47;6.72;;;5.90;;
42666;SDS011;28280;49.646;14.130;2022-07-24T12:45:19;7.93;;;6.20;;
42666;SDS011;28280;49.646;14.130;2022-07-24T12:56:52;7.60;;;5.80;;
42666;SDS011;28280;49.646;14.130;2022-07-24T13:02:24;6.57;;;5.93;;
42666;SDS011;28280;49.646;14.130;2022-07-24T13:08:00;6.55;;;5.80;;
42666;SDS011;28280;49.646;14.130;2022-07-24T13:13:31;6.40;;;5.78;;
42666;SDS011;28280;49.646;14.130;2022-07-24T13:19:02;7.85;;;6.20;;
42666;SDS011;28280;49.646;14.130;2022-07-24T13:24:35;6.80;;;6.10;;
42666;SDS011;28280;49.646;14.130;2022-07-24T13:30:08;23.63;;;6.78;;
42666;SDS011;28280;49.646;14.130;2022-07-24T13:41:14;6.88;;;5.45;;
42666;SDS011;28280;49.646;14.130;2022-07-24T13:46:45;11.07;;;5.50;;
42666;SDS011;28280;49.646;14.130;2022-07-24T13:52:17;10.57;;;5.43;;
42666;SDS011;28280;49.646;14.130;2022-07-24T13:57:49;7.93;;;5.90;;
42666;SDS011;28280;49.646;14.130;2022-07-24T14:03:19;7.40;;;5.40;;
42666;SDS011;28280;49.646;14.130;2022-07-24T14:09:10;29.65;;;8.60;;
42666;SDS011;28280;49.646;14.130;2022-07-24T14:14:43;13.27;;;7.60;;
42666;SDS011;28280;49.646;14.130;2022-07-24T14:20:14;14.53;;;6.53;;
42666;SDS011;28280;49.646;14.130;2022-07-24T14:25:45;12.83;;;7.07;;
42666;SDS011;28280;49.646;14.130;2022-07-24T14:31:16;11.80;;;6.80;;
42666;SDS011;28280;49.646;14.130;2022-07-24T14:36:48;9.88;;;6.50;;
42666;SDS011;28280;49.646;14.130;2022-07-24T14:42:19;9.73;;;6.50;;
42666;SDS011;28280;49.646;14.130;2022-07-24T14:47:51;8.50;;;6.88;;
42666;SDS011;28280;49.646;14.130;2022-07-24T14:53:23;8.38;;;6.45;;
42666;SDS011;28280;49.646;14.130;2022-07-24T14:58:54;9.75;;;6.72;;
42666;SDS011;28280;49.646;14.130;2022-07-24T15:04:32;8.88;;;6.18;;
42666;SDS011;28280;49.646;14.130;2022-07-24T15:10:03;7.97;;;6.27;;
42666;SDS011;28280;49.646;14.130;2022-07-24T15:21:05;6.50;;;5.65;;
42666;SDS011;28280;49.646;14.130;2022-07-24T15:26:36;6.17;;;5.57;;
42666;SDS011;28280;49.646;14.130;2022-07-24T15:32:07;7.67;;;6.47;;
42666;SDS011;28280;49.646;14.130;2022-07-24T15:37:39;54.97;;;8.10;;
42666;SDS011;28280;49.646;14.130;2022-07-24T15:43:10;9.53;;;5.63;;
42666;SDS011;28280;49.646;14.130;2022-07-24T15:48:41;8.27;;;5.97;;
42666;SDS011;28280;49.646;14.130;2022-07-24T15:59:44;6.72;;;6.05;;
42666;SDS011;28280;49.646;14.130;2022-07-24T16:05:15;8.43;;;5.83;;
42666;SDS011;28280;49.646;14.130;2022-07-24T16:10:51;6.65;;;5.85;;
42666;SDS011;28280;49.646;14.130;2022-07-24T16:16:22;7.23;;;5.67;;
42666;SDS011;28280;49.646;14.130;2022-07-24T16:21:53;8.10;;;5.55;;
42666;SDS011;28280;49.646;14.130;2022-07-24T16:27:25;6.25;;;5.55;;
42666;SDS011;28280;49.646;14.130;2022-07-24T16:32:59;7.43;;;5.88;;
42666;SDS011;28280;49.646;14.130;2022-07-24T16:38:48;8.93;;;5.83;;
42666;SDS011;28280;49.646;14.130;2022-07-24T16:44:20;6.18;;;5.53;;
42666;SDS011;28280;49.646;14.130;2022-07-24T16:49:51;7.82;;;5.30;;
42666;SDS011;28280;49.646;14.130;2022-07-24T16:55:23;9.80;;;6.00;;
42666;SDS011;28280;49.646;14.130;2022-07-24T17:00:54;7.55;;;5.60;;
42666;SDS011;28280;49.646;14.130;2022-07-24T17:06:25;14.00;;;6.63;;
42666;SDS011;28280;49.646;14.130;2022-07-24T17:11:56;7.93;;;5.70;;
42666;SDS011;28280;49.646;14.130;2022-07-24T17:17:28;7.10;;;6.03;;
42666;SDS011;28280;49.646;14.130;2022-07-24T17:23:19;9.57;;;7.15;;
42666;SDS011;28280;49.646;14.130;2022-07-24T17:28:50;13.73;;;8.10;;
42666;SDS011;28280;49.646;14.130;2022-07-24T17:34:21;12.90;;;8.45;;
42666;SDS011;28280;49.646;14.130;2022-07-24T17:39:52;20.27;;;12.05;;
42666;SDS011;28280;49.646;14.130;2022-07-24T17:45:23;21.57;;;11.50;;
42666;SDS011;28280;49.646;14.130;2022-07-24T17:50:55;13.97;;;9.37;;
42666;SDS011;28280;49.646;14.130;2022-07-24T17:56:26;12.15;;;8.35;;
42666;SDS011;28280;49.646;14.130;2022-07-24T18:01:58;13.27;;;8.98;;
42666;SDS011;28280;49.646;14.130;2022-07-24T18:07:33;11.90;;;8.43;;
42666;SDS011;28280;49.646;14.130;2022-07-24T18:13:09;12.68;;;8.15;;
42666;SDS011;28280;49.646;14.130;2022-07-24T18:18:40;10.38;;;8.00;;
42666;SDS011;28280;49.646;14.130;2022-07-24T18:24:11;9.73;;;7.32;;
42666;SDS011;28280;49.646;14.130;2022-07-24T18:29:42;8.77;;;7.25;;
42666;SDS011;28280;49.646;14.130;2022-07-24T18:35:15;7.70;;;6.57;;
42666;SDS011;28280;49.646;14.130;2022-07-24T18:46:17;8.93;;;7.07;;
42666;SDS011;28280;49.646;14.130;2022-07-24T18:51:49;7.13;;;6.43;;
42666;SDS011;28280;49.646;14.130;2022-07-24T18:57:22;9.05;;;6.60;;
42666;SDS011;28280;49.646;14.130;2022-07-24T19:02:53;7.53;;;6.23;;
42666;SDS011;28280;49.646;14.130;2022-07-24T19:08:25;7.47;;;6.32;;
42666;SDS011;28280;49.646;14.130;2022-07-24T19:13:57;7.97;;;5.87;;
42666;SDS011;28280;49.646;14.130;2022-07-24T19:19:28;6.65;;;6.00;;
42666;SDS011;28280;49.646;14.130;2022-07-24T19:24:59;6.30;;;5.30;;
42666;SDS011;28280;49.646;14.130;2022-07-24T19:30:31;7.65;;;5.18;;
42666;SDS011;28280;49.646;14.130;2022-07-24T19:36:08;5.85;;;5.30;;
42666;SDS011;28280;49.646;14.130;2022-07-24T19:41:39;6.50;;;5.57;;
42666;SDS011;28280;49.646;14.130;2022-07-24T19:47:11;6.28;;;5.32;;
42666;SDS011;28280;49.646;14.130;2022-07-24T19:52:42;7.75;;;5.50;;
42666;SDS011;28280;49.646;14.130;2022-07-24T19:58:13;7.85;;;5.13;;
42666;SDS011;28280;49.646;14.130;2022-07-24T20:03:46;5.70;;;4.90;;
42666;SDS011;28280;49.646;14.130;2022-07-24T20:09:17;8.15;;;5.30;;
42666;SDS011;28280;49.646;14.130;2022-07-24T20:14:47;5.65;;;4.93;;
42666;SDS011;28280;49.646;14.130;2022-07-24T20:20:18;5.53;;;4.88;;
42666;SDS011;28280;49.646;14.130;2022-07-24T20:25:50;8.35;;;5.18;;
42666;SDS011;28280;49.646;14.130;2022-07-24T20:31:21;5.18;;;4.60;;
42666;SDS011;28280;49.646;14.130;2022-07-24T20:36:54;5.28;;;4.53;;
42666;SDS011;28280;49.646;14.130;2022-07-24T20:42:26;7.30;;;4.78;;
42666;SDS011;28280;49.646;14.130;2022-07-24T20:47:57;5.95;;;4.85;;
42666;SDS011;28280;49.646;14.130;2022-07-24T20:53:28;5.53;;;5.03;;
42666;SDS011;28280;49.646;14.130;2022-07-24T20:59:00;7.53;;;5.07;;
42666;SDS011;28280;49.646;14.130;2022-07-24T21:04:32;8.00;;;5.30;;
42666;SDS011;28280;49.646;14.130;2022-07-24T21:10:03;6.30;;;5.00;;
42666;SDS011;28280;49.646;14.130;2022-07-24T21:15:35;6.80;;;5.17;;
42666;SDS011;28280;49.646;14.130;2022-07-24T21:21:05;6.15;;;5.18;;
42666;SDS011;28280;49.646;14.130;2022-07-24T21:26:36;5.15;;;4.60;;
42666;SDS011;28280;49.646;14.130;2022-07-24T21:32:08;6.50;;;4.70;;
42666;SDS011;28280;49.646;14.130;2022-07-24T21:37:40;5.13;;;4.63;;
42666;SDS011;28280;49.646;14.130;2022-07-24T21:43:11;5.68;;;5.07;;
42666;SDS011;28280;49.646;14.130;2022-07-24T21:48:42;5.20;;;4.53;;
42666;SDS011;28280;49.646;14.130;2022-07-24T21:54:13;7.55;;;5.45;;
42666;SDS011;28280;49.646;14.130;2022-07-24T21:59:44;5.63;;;5.13;;
42666;SDS011;28280;49.646;14.130;2022-07-24T22:05:15;5.63;;;4.78;;
42666;SDS011;28280;49.646;14.130;2022-07-24T22:10:46;6.25;;;5.40;;
42666;SDS011;28280;49.646;14.130;2022-07-24T22:16:17;6.13;;;5.05;;
42666;SDS011;28280;49.646;14.130;2022-07-24T22:21:49;5.53;;;4.90;;
42666;SDS011;28280;49.646;14.130;2022-07-24T22:27:20;7.43;;;5.30;;
42666;SDS011;28280;49.646;14.130;2022-07-24T22:32:51;9.20;;;5.25;;
42666;SDS011;28280;49.646;14.130;2022-07-24T22:38:23;5.97;;;5.25;;
42666;SDS011;28280;49.646;14.130;2022-07-24T22:43:59;5.80;;;4.72;;
42666;SDS011;28280;49.646;14.130;2022-07-24T22:49:30;8.30;;;5.22;;
42666;SDS011;28280;49.646;14.130;2022-07-24T22:55:03;5.70;;;4.97;;
42666;SDS011;28280;49.646;14.130;2022-07-24T23:00:34;5.27;;;4.77;;
42666;SDS011;28280;49.646;14.130;2022-07-24T23:06:06;6.80;;;5.40;;
42666;SDS011;28280;49.646;14.130;2022-07-24T23:11:37;5.40;;;4.80;;
42666;SDS011;28280;49.646;14.130;2022-07-24T23:17:08;7.15;;;5.15;;
42666;SDS011;28280;49.646;14.130;2022-07-24T23:22:39;5.95;;;5.25;;
42666;SDS011;28280;49.646;14.130;2022-07-24T23:28:10;5.57;;;5.07;;
42666;SDS011;28280;49.646;14.130;2022-07-24T23:39:14;7.68;;;5.05;;
42666;SDS011;28280;49.646;14.130;2022-07-24T23:44:45;5.60;;;4.75;;
42666;SDS011;28280;49.646;14.130;2022-07-24T23:50:16;8.63;;;4.97;;
42666;SDS011;28280;49.646;14.130;2022-07-24T23:55:47;6.28;;;5.57;;
